KDAG/DAG METAR and TAF weather

Enter ICAO airport designator
Station Type Date Time Source
KDAG METAR 2021/03/07 08:50 UTC NOAA

KDAG 070850Z AUTO 29013KT 10SM CLR 10/01 A2998 RMK AO2 SLP139 T01000011 50003


Station Type Date Time Source
KDAG Decoded METAR 2021/03/07 08:50 UTC NOAA

BARSTOW-DAGGETT AIRPORT, CA, United States (KDAG) 34-51N 116-47W 587M
Mar 07, 2021 - 03:50 AM EST / 2021.03.07 0850 UTC
Wind: from the WNW (290 degrees) at 15 MPH (13 KT):0
Visibility: 10 mile(s):0
Sky conditions: clear
Temperature: 50.0 F (10.0 C)
Dew Point: 34.0 F (1.1 C)
Relative Humidity: 53%
Pressure (altimeter): 29.98 in. Hg (1015 hPa)
Pressure tendency: 0.01 inches (0.3 hPa) higher than three hours ago
ob: KDAG 070850Z AUTO 29013KT 10SM CLR 10/01 A2998 RMK AO2 SLP139 T01000011 50003
cycle: 9

Station Type Date Time Source
KDAG TAF 2021/03/07 06:22 UTC NOAA

TAF KDAG 070520Z 0706/0806 26018KT P6SM FEW250
FM071200 27008KT P6SM BKN250
FM072000 VRB05KT P6SM BKN180 BKN250
FM080000 27012G20KT P6SM SCT180 BKN250

Example: see airport list